Time;durP1;ratioP1;P1;durP2;ratioP2;P2;SDS_P1;SDS_P2;PMS_P1;PMS_P2;Temp;Humidity;BMP_temperature;BMP_pressure;BME280_temperature;BME280_humidity;BME280_pressure;Samples;Min_cycle;Max_cycle;Signal;HPM_P1;HPM_P2
2021/03/02 00:01:59;;;;;;;6.20;4.20;;;2.00;99.90;;;;;;4982727;28;20209;-79
2021/03/02 00:04:25;;;;;;;9.53;6.17;;;1.90;99.90;;;;;;4985345;28;20211;-81
2021/03/02 00:06:52;;;;;;;8.87;5.60;;;2.00;99.90;;;;;;4977552;28;20180;-80
2021/03/02 00:09:18;;;;;;;11.77;6.23;;;2.00;99.90;;;;;;4978908;28;20189;-80
2021/03/02 00:11:44;;;;;;;12.20;5.00;;;2.00;99.90;;;;;;4977439;28;20570;-81
2021/03/02 00:14:10;;;;;;;7.80;4.67;;;2.00;99.90;;;;;;4978681;28;20183;-79
2021/03/02 00:16:41;;;;;;;6.23;4.83;;;2.00;99.90;;;;;;4977676;28;20673;-81
2021/03/02 00:19:13;;;;;;;8.73;5.80;;;1.90;99.90;;;;;;4979024;28;20208;-80
2021/03/02 00:21:50;;;;;;;9.47;5.43;;;1.90;99.90;;;;;;4979418;28;20350;-81
2021/03/02 00:24:28;;;;;;;5.90;4.53;;;1.90;99.90;;;;;;4983011;28;20184;-82
2021/03/02 00:26:56;;;;;;;7.37;4.53;;;1.90;99.90;;;;;;4987870;28;20680;-81
2021/03/02 00:29:22;;;;;;;8.17;5.17;;;1.80;99.90;;;;;;4986822;28;20210;-80
2021/03/02 00:31:49;;;;;;;6.13;4.47;;;1.90;99.90;;;;;;4995553;28;20291;-80
2021/03/02 00:34:15;;;;;;;6.63;4.53;;;1.80;99.90;;;;;;4987546;28;20273;-81
2021/03/02 00:36:41;;;;;;;8.17;4.80;;;1.80;99.90;;;;;;4985282;28;20189;-80
2021/03/02 00:39:08;;;;;;;9.70;5.63;;;1.80;99.90;;;;;;4976174;28;20675;-81
2021/03/02 00:41:33;;;;;;;11.63;6.27;;;1.90;99.90;;;;;;4978072;28;20681;-80
2021/03/02 00:43:59;;;;;;;7.50;5.73;;;1.90;99.90;;;;;;4979110;28;20189;-81
2021/03/02 00:46:25;;;;;;;10.30;5.50;;;1.90;99.90;;;;;;4976797;28;20911;-80
2021/03/02 00:48:51;;;;;;;7.90;5.27;;;1.90;99.90;;;;;;4978118;28;20646;-80
2021/03/02 00:51:17;;;;;;;8.23;5.20;;;1.90;99.90;;;;;;4986345;28;20300;-82
2021/03/02 00:53:43;;;;;;;10.53;6.57;;;2.00;99.90;;;;;;4978021;28;20626;-81
2021/03/02 00:56:08;;;;;;;6.57;4.40;;;1.90;99.90;;;;;;4991694;28;20193;-81
2021/03/02 00:58:34;;;;;;;7.70;4.53;;;2.00;99.90;;;;;;4985317;28;20227;-80
2021/03/02 01:01:00;;;;;;;6.90;5.10;;;1.90;99.90;;;;;;4983593;28;20207;-81
2021/03/02 01:03:26;;;;;;;6.40;4.80;;;1.90;99.90;;;;;;5001994;28;20228;-81
2021/03/02 01:05:52;;;;;;;7.83;4.83;;;1.80;99.90;;;;;;4982492;28;20264;-80
2021/03/02 01:08:17;;;;;;;10.53;5.50;;;1.70;99.90;;;;;;4980120;28;20184;-80
2021/03/02 01:10:43;;;;;;;6.53;4.27;;;1.70;99.90;;;;;;4981145;28;20195;-81
2021/03/02 01:13:09;;;;;;;6.20;4.37;;;1.70;99.90;;;;;;4986690;28;20283;-80
2021/03/02 01:15:35;;;;;;;9.27;5.03;;;1.70;99.90;;;;;;4981903;28;20287;-79
2021/03/02 01:18:01;;;;;;;7.83;5.40;;;1.70;99.90;;;;;;4978474;28;20209;-80
2021/03/02 01:20:26;;;;;;;10.23;5.80;;;1.70;99.90;;;;;;4980208;28;20181;-81
2021/03/02 01:22:52;;;;;;;7.17;4.87;;;1.70;99.90;;;;;;4979243;28;20682;-77
2021/03/02 01:25:20;;;;;;;8.60;5.50;;;1.70;99.90;;;;;;4986047;28;20192;-78
2021/03/02 01:27:46;;;;;;;9.47;6.27;;;1.80;99.90;;;;;;4979182;28;20184;-79
2021/03/02 01:30:13;;;;;;;10.33;5.23;;;1.70;99.90;;;;;;4977515;28;20669;-81
2021/03/02 01:32:39;;;;;;;8.03;5.37;;;1.70;99.90;;;;;;4992242;28;20613;-80
2021/03/02 01:35:10;;;;;;;8.10;5.90;;;1.60;99.90;;;;;;4976945;28;20198;-80
2021/03/02 01:37:37;;;;;;;7.40;4.60;;;1.60;99.90;;;;;;4975605;28;20213;-80
2021/03/02 01:40:21;;;;;;;9.70;5.40;;;1.60;99.90;;;;;;4984292;28;20646;-79
2021/03/02 01:42:46;;;;;;;11.10;5.50;;;1.60;99.90;;;;;;4983239;28;20212;-80
2021/03/02 01:45:15;;;;;;;8.97;5.57;;;1.60;99.90;;;;;;4977657;28;20191;-79
2021/03/02 01:47:42;;;;;;;6.93;5.17;;;1.60;99.90;;;;;;4975299;28;20188;-80
2021/03/02 01:50:09;;;;;;;6.97;4.97;;;1.60;99.90;;;;;;4979732;28;20185;-81
2021/03/02 01:52:35;;;;;;;6.27;4.33;;;1.50;99.90;;;;;;4991722;28;21081;-79
2021/03/02 01:55:04;;;;;;;8.80;4.67;;;1.50;99.90;;;;;;4983188;28;20228;-80
2021/03/02 01:57:29;;;;;;;10.90;6.17;;;1.50;99.90;;;;;;4975045;28;20208;-81
2021/03/02 01:59:55;;;;;;;7.90;4.70;;;1.50;99.90;;;;;;4976863;28;20752;-79
2021/03/02 02:02:29;;;;;;;8.73;5.70;;;1.50;99.90;;;;;;4978135;28;20208;-80
2021/03/02 02:04:57;;;;;;;7.87;5.27;;;1.50;99.90;;;;;;4976442;28;20179;-81
2021/03/02 02:07:33;;;;;;;12.93;5.80;;;1.50;99.90;;;;;;4978275;28;20267;-81
2021/03/02 02:10:10;;;;;;;11.40;6.63;;;1.50;99.90;;;;;;4985677;28;21202;-79
2021/03/02 02:12:44;;;;;;;8.93;6.57;;;1.50;99.90;;;;;;4976896;28;20232;-80
2021/03/02 02:15:20;;;;;;;7.97;4.63;;;1.40;99.90;;;;;;4981645;28;20272;-78
2021/03/02 02:18:05;;;;;;;13.80;5.90;;;1.30;99.90;;;;;;4975960;28;21012;-80
2021/03/02 02:21:02;;;;;;;7.63;5.20;;;1.40;99.90;;;;;;4984321;28;20180;-79
2021/03/02 02:24:02;;;;;;;9.93;5.73;;;1.40;99.90;;;;;;4978591;28;21004;-80
2021/03/02 02:26:46;;;;;;;7.47;4.30;;;1.40;99.90;;;;;;4977196;28;20184;-79
2021/03/02 02:29:16;;;;;;;10.43;6.70;;;1.40;99.90;;;;;;4978426;28;20620;-78
2021/03/02 02:31:43;;;;;;;8.00;6.00;;;1.50;99.90;;;;;;4984385;28;20208;-78
2021/03/02 02:34:15;;;;;;;10.37;5.10;;;1.50;99.90;;;;;;4992173;28;20662;-80
2021/03/02 02:36:44;;;;;;;14.57;6.67;;;1.40;99.90;;;;;;4982500;28;20189;-80
2021/03/02 02:39:11;;;;;;;9.43;5.63;;;1.50;99.90;;;;;;4978560;28;20553;-80
2021/03/02 02:41:37;;;;;;;10.77;6.47;;;1.40;99.90;;;;;;4982359;28;20299;-80
2021/03/02 02:44:03;;;;;;;10.17;6.00;;;1.30;99.90;;;;;;4990411;28;20730;-80
2021/03/02 02:46:31;;;;;;;9.13;6.23;;;1.40;99.90;;;;;;4983694;28;20216;-80
2021/03/02 02:48:58;;;;;;;22.93;9.80;;;1.30;99.90;;;;;;4987464;28;20188;-79
2021/03/02 02:51:24;;;;;;;10.30;6.67;;;1.20;99.90;;;;;;4992839;28;20213;-80
2021/03/02 02:53:50;;;;;;;10.07;7.07;;;1.20;99.90;;;;;;4985358;28;20207;-80
2021/03/02 02:56:19;;;;;;;12.57;5.60;;;1.20;99.90;;;;;;4992297;28;20661;-80
2021/03/02 02:59:00;;;;;;;8.57;4.97;;;1.30;99.90;;;;;;4983408;28;20224;-80
2021/03/02 03:01:30;;;;;;;6.53;4.33;;;1.30;99.90;;;;;;4984948;23;20233;-69
2021/03/02 03:03:57;;;;;;;8.43;5.93;;;1.20;99.90;;;;;;4956565;28;20674;-67
2021/03/02 03:06:26;;;;;;;11.47;5.97;;;1.20;99.90;;;;;;4966476;28;20193;-68
2021/03/02 03:08:52;;;;;;;7.43;5.33;;;1.10;99.90;;;;;;4962287;28;20704;-69
2021/03/02 03:11:23;;;;;;;12.13;6.67;;;1.10;99.90;;;;;;4955195;28;20192;-66
2021/03/02 03:13:51;;;;;;;9.77;6.23;;;1.10;99.90;;;;;;4957707;28;20244;-68
2021/03/02 03:16:19;;;;;;;8.87;4.50;;;1.10;99.90;;;;;;4955087;28;20185;-68
2021/03/02 03:18:56;;;;;;;10.57;6.90;;;1.20;99.90;;;;;;4959910;28;20304;-66
2021/03/02 03:21:23;;;;;;;9.83;7.00;;;1.20;99.90;;;;;;4963216;28;20559;-68
2021/03/02 03:23:50;;;;;;;15.97;8.47;;;1.20;99.90;;;;;;4954266;28;20209;-65
2021/03/02 03:26:20;;;;;;;12.30;6.43;;;1.20;99.90;;;;;;4966188;28;20798;-69
2021/03/02 03:28:49;;;;;;;11.93;6.10;;;1.20;99.90;;;;;;4955556;28;20204;-67
2021/03/02 03:31:17;;;;;;;12.23;7.50;;;1.30;99.90;;;;;;4958149;28;20201;-68
2021/03/02 03:33:43;;;;;;;13.30;8.03;;;1.30;99.90;;;;;;4960065;28;20291;-66
2021/03/02 03:36:10;;;;;;;12.47;6.50;;;1.20;99.90;;;;;;4961023;28;20686;-68
2021/03/02 03:38:37;;;;;;;15.90;7.87;;;1.20;99.90;;;;;;4966603;28;20247;-69
2021/03/02 03:41:03;;;;;;;10.23;4.97;;;1.30;99.90;;;;;;4966662;28;20675;-67
2021/03/02 03:43:29;;;;;;;11.93;6.60;;;1.30;99.90;;;;;;4966206;28;20201;-69
2021/03/02 03:45:54;;;;;;;10.37;5.77;;;1.20;99.90;;;;;;4955742;28;20195;-66
2021/03/02 03:48:20;;;;;;;9.03;5.27;;;1.20;99.90;;;;;;4956783;28;20181;-67
2021/03/02 03:50:46;;;;;;;9.40;5.60;;;1.10;99.90;;;;;;4960326;28;20198;-66
2021/03/02 03:53:14;;;;;;;30.70;7.03;;;1.10;99.90;;;;;;4960722;28;20201;-67
2021/03/02 03:55:43;;;;;;;7.83;4.20;;;1.10;99.90;;;;;;4957410;28;20251;-67
2021/03/02 03:58:14;;;;;;;10.83;6.33;;;1.10;99.90;;;;;;4960716;28;20216;-69
2021/03/02 04:00:39;;;;;;;7.33;4.10;;;1.00;99.90;;;;;;4956832;28;20321;-69
2021/03/02 04:03:07;;;;;;;10.50;5.37;;;0.90;99.90;;;;;;4960751;28;20676;-67
2021/03/02 04:05:34;;;;;;;5.80;4.50;;;1.00;99.90;;;;;;4964470;28;20219;-67
2021/03/02 04:08:00;;;;;;;8.40;5.57;;;1.00;99.90;;;;;;4958893;28;20194;-70
2021/03/02 04:10:26;;;;;;;6.57;4.73;;;0.90;99.90;;;;;;4957981;28;20185;-69
2021/03/02 04:12:52;;;;;;;7.17;4.43;;;0.90;99.90;;;;;;4955994;28;20257;-66
2021/03/02 04:15:18;;;;;;;9.67;6.03;;;0.90;99.90;;;;;;4957962;28;20216;-66
2021/03/02 04:17:51;;;;;;;8.87;4.97;;;0.90;99.90;;;;;;4960461;28;20738;-69
2021/03/02 04:20:16;;;;;;;19.07;8.27;;;1.00;99.90;;;;;;4958911;28;20196;-68
2021/03/02 04:22:43;;;;;;;11.20;6.30;;;1.00;99.90;;;;;;4958300;28;20186;-68
2021/03/02 04:25:09;;;;;;;8.43;4.33;;;1.00;99.90;;;;;;4954675;28;20578;-67
2021/03/02 04:27:34;;;;;;;5.90;4.23;;;0.90;99.90;;;;;;4959285;28;20204;-67
2021/03/02 04:30:00;;;;;;;11.30;4.30;;;0.90;99.90;;;;;;4969355;28;20212;-67
2021/03/02 04:32:26;;;;;;;8.20;4.63;;;0.80;99.90;;;;;;4961168;28;20685;-69
2021/03/02 04:34:52;;;;;;;12.17;6.27;;;0.90;99.90;;;;;;4962316;28;20209;-68
2021/03/02 04:37:18;;;;;;;7.13;4.63;;;1.00;99.90;;;;;;4961442;28;20197;-66
2021/03/02 04:39:43;;;;;;;4.10;3.50;;;0.90;99.90;;;;;;4963336;28;20184;-67
2021/03/02 04:42:09;;;;;;;7.10;5.40;;;0.80;99.90;;;;;;4969098;28;20248;-68
2021/03/02 04:44:35;;;;;;;6.53;4.37;;;0.80;99.90;;;;;;4960909;28;20880;-67
2021/03/02 04:47:00;;;;;;;9.90;5.50;;;0.80;99.90;;;;;;4963359;28;20232;-68
2021/03/02 04:49:26;;;;;;;7.33;4.50;;;0.60;99.90;;;;;;4946105;28;20177;-69
2021/03/02 04:51:52;;;;;;;7.13;4.53;;;0.50;99.90;;;;;;4967738;28;20185;-67
2021/03/02 04:54:18;;;;;;;12.57;7.47;;;0.50;99.90;;;;;;4964796;28;20259;-68
2021/03/02 04:56:44;;;;;;;9.57;5.33;;;0.60;99.90;;;;;;4968599;28;20185;-68
2021/03/02 04:59:09;;;;;;;9.60;6.53;;;0.70;99.90;;;;;;4969005;28;20260;-67
2021/03/02 05:01:35;;;;;;;14.47;6.67;;;0.60;99.90;;;;;;4957894;28;20209;-68
2021/03/02 05:04:01;;;;;;;10.23;5.33;;;0.60;99.90;;;;;;4953976;28;20201;-68
2021/03/02 05:06:27;;;;;;;9.43;6.13;;;0.60;99.90;;;;;;4953058;28;20248;-69
2021/03/02 05:08:53;;;;;;;8.07;5.33;;;0.60;99.90;;;;;;4955729;28;20201;-67
2021/03/02 05:11:19;;;;;;;9.23;6.30;;;0.60;99.90;;;;;;4951162;28;20277;-68
2021/03/02 05:13:45;;;;;;;9.47;5.97;;;0.60;99.90;;;;;;4959999;28;20328;-69
2021/03/02 05:16:11;;;;;;;9.07;5.53;;;0.60;99.90;;;;;;4955158;28;20188;-68
2021/03/02 05:18:37;;;;;;;5.20;4.50;;;0.60;99.90;;;;;;4958553;28;20221;-68
2021/03/02 05:21:03;;;;;;;7.00;4.80;;;0.60;99.90;;;;;;4963701;28;20192;-68
2021/03/02 05:23:29;;;;;;;13.83;6.00;;;0.50;99.90;;;;;;4964818;28;20300;-67
2021/03/02 05:25:54;;;;;;;7.53;5.60;;;0.40;99.90;;;;;;4957564;28;20288;-69
2021/03/02 05:28:20;;;;;;;9.87;6.37;;;0.30;99.90;;;;;;4954785;28;20336;-67
2021/03/02 05:30:46;;;;;;;10.00;5.97;;;0.40;99.90;;;;;;4952887;28;20193;-68
2021/03/02 05:33:11;;;;;;;13.33;7.40;;;0.30;99.90;;;;;;4956161;28;20228;-66
2021/03/02 05:35:37;;;;;;;12.00;6.37;;;0.30;99.90;;;;;;4955801;28;20193;-68
2021/03/02 05:38:03;;;;;;;9.73;6.10;;;0.40;99.90;;;;;;4958944;28;20264;-68
2021/03/02 05:40:28;;;;;;;9.60;5.63;;;0.30;99.90;;;;;;4950023;28;20205;-67
2021/03/02 05:42:54;;;;;;;11.47;6.67;;;0.40;99.90;;;;;;4953725;28;20206;-69
2021/03/02 05:45:20;;;;;;;9.90;6.17;;;0.50;99.90;;;;;;4956432;28;20220;-67
2021/03/02 05:47:47;;;;;;;10.37;4.77;;;0.50;99.90;;;;;;4954646;28;20185;-69
2021/03/02 05:50:14;;;;;;;12.23;5.60;;;0.60;99.90;;;;;;4949967;28;20192;-68
2021/03/02 05:52:40;;;;;;;14.13;7.93;;;0.60;99.90;;;;;;4963776;28;20195;-67
2021/03/02 05:55:07;;;;;;;9.00;5.23;;;0.70;99.90;;;;;;4956114;28;20194;-66
2021/03/02 05:57:33;;;;;;;11.40;6.37;;;0.70;99.90;;;;;;4952828;28;20746;-67
2021/03/02 06:00:00;;;;;;;8.13;5.50;;;0.60;99.90;;;;;;4956624;28;20185;-68
2021/03/02 06:02:26;;;;;;;11.63;5.23;;;0.50;99.90;;;;;;4956138;28;20205;-68
2021/03/02 06:04:52;;;;;;;10.17;7.60;;;0.50;99.90;;;;;;4952069;28;20216;-68
2021/03/02 06:07:17;;;;;;;8.13;5.13;;;0.60;99.90;;;;;;4961193;28;20448;-68
2021/03/02 06:09:44;;;;;;;9.77;5.70;;;0.50;99.90;;;;;;4950848;28;20677;-68
2021/03/02 06:12:10;;;;;;;9.93;5.50;;;0.60;99.90;;;;;;4951949;28;20189;-67
2021/03/02 06:14:36;;;;;;;8.80;5.10;;;0.50;99.90;;;;;;4964539;28;20208;-68
2021/03/02 06:17:03;;;;;;;10.03;7.23;;;0.50;99.90;;;;;;4955543;28;20560;-67
2021/03/02 06:19:43;;;;;;;10.27;6.37;;;0.50;99.90;;;;;;4953536;28;20197;-69
2021/03/02 06:22:35;;;;;;;6.97;4.70;;;0.40;99.90;;;;;;4946798;28;20189;-66
2021/03/02 06:25:04;;;;;;;4.43;3.73;;;0.40;99.90;;;;;;4948412;28;20655;-69
2021/03/02 06:27:31;;;;;;;7.60;5.80;;;0.30;99.90;;;;;;4949591;28;20189;-68
2021/03/02 06:30:15;;;;;;;12.70;6.90;;;0.20;99.90;;;;;;4948392;28;20186;-70
2021/03/02 06:32:45;;;;;;;10.93;5.27;;;0.10;99.90;;;;;;4948437;28;20200;-66
2021/03/02 06:35:13;;;;;;;7.00;5.67;;;0.20;99.90;;;;;;4946941;28;20185;-67
2021/03/02 06:37:42;;;;;;;8.97;4.63;;;0.30;99.90;;;;;;4959418;28;20208;-69
2021/03/02 06:40:10;;;;;;;9.30;5.57;;;0.30;99.90;;;;;;4960587;28;20173;-68
2021/03/02 06:42:42;;;;;;;9.57;5.23;;;0.30;99.90;;;;;;4959002;28;20604;-67
2021/03/02 06:45:10;;;;;;;9.77;6.80;;;0.30;99.90;;;;;;4962329;28;20181;-68
2021/03/02 06:47:39;;;;;;;8.47;6.23;;;0.30;99.90;;;;;;4959328;28;20232;-67
2021/03/02 06:50:21;;;;;;;11.40;7.30;;;0.40;99.90;;;;;;4961726;28;20193;-66
2021/03/02 06:52:47;;;;;;;7.87;4.63;;;0.60;99.90;;;;;;4961630;28;20200;-69
2021/03/02 06:55:15;;;;;;;9.73;5.03;;;0.60;99.90;;;;;;4958705;28;20193;-69
2021/03/02 06:57:45;;;;;;;8.10;5.07;;;0.60;99.90;;;;;;4955575;28;20209;-69
2021/03/02 07:00:12;;;;;;;8.07;5.73;;;0.50;99.90;;;;;;4955329;28;20189;-68
2021/03/02 07:02:45;;;;;;;8.53;5.20;;;0.40;99.90;;;;;;4961431;28;20197;-68
2021/03/02 07:05:18;;;;;;;19.87;5.73;;;0.40;99.90;;;;;;4955862;28;20656;-68
2021/03/02 07:07:46;;;;;;;14.93;6.47;;;0.50;99.90;;;;;;4962986;28;20197;-67
2021/03/02 07:10:14;;;;;;;13.77;6.37;;;0.60;99.90;;;;;;4967011;28;20220;-67
2021/03/02 07:12:41;;;;;;;7.30;5.73;;;0.60;99.90;;;;;;4950195;28;20189;-68
2021/03/02 07:15:18;;;;;;;8.47;6.37;;;0.60;99.90;;;;;;4951123;28;20188;-69
2021/03/02 07:17:50;;;;;;;10.10;5.40;;;0.60;99.90;;;;;;4958909;28;20217;-67
2021/03/02 07:20:17;;;;;;;9.87;5.00;;;0.70;99.90;;;;;;4963929;28;20248;-67
2021/03/02 07:22:48;;;;;;;6.07;4.33;;;0.70;99.90;;;;;;4960569;28;20275;-68
2021/03/02 07:25:18;;;;;;;9.90;6.57;;;0.90;99.90;;;;;;4961169;28;20340;-68
2021/03/02 07:27:47;;;;;;;6.90;3.67;;;0.90;99.90;;;;;;4960798;28;20201;-67
2021/03/02 07:30:13;;;;;;;7.77;4.57;;;0.90;99.90;;;;;;4959667;28;20200;-69
2021/03/02 07:32:40;;;;;;;5.27;3.53;;;0.90;99.90;;;;;;4960926;28;20193;-66
2021/03/02 07:35:08;;;;;;;5.37;4.60;;;0.90;99.90;;;;;;4963975;28;20224;-68
2021/03/02 07:37:34;;;;;;;4.77;3.77;;;1.10;99.90;;;;;;4950697;28;20224;-69
2021/03/02 07:40:10;;;;;;;6.83;4.27;;;1.10;99.90;;;;;;4958067;28;20190;-69
2021/03/02 07:42:37;;;;;;;5.83;3.40;;;1.20;99.90;;;;;;4948244;28;20188;-69
2021/03/02 07:45:19;;;;;;;5.27;3.03;;;1.20;99.90;;;;;;4951416;28;20216;-66
2021/03/02 07:47:56;;;;;;;6.13;3.27;;;1.30;99.90;;;;;;4954766;28;20189;-70
2021/03/02 07:50:25;;;;;;;6.70;4.80;;;1.30;99.90;;;;;;4963233;28;20181;-71
2021/03/02 07:53:22;;;;;;;6.97;3.63;;;1.40;99.90;;;;;;4961406;28;20605;-67
2021/03/02 07:56:20;;;;;;;5.37;2.30;;;1.60;99.90;;;;;;4953112;28;20193;-68
2021/03/02 07:59:04;;;;;;;6.20;3.97;;;1.70;99.90;;;;;;4967114;28;20201;-65
2021/03/02 08:01:30;;;;;;;5.37;3.00;;;1.60;99.90;;;;;;4958331;28;20212;-66
2021/03/02 08:04:17;;;;;;;6.07;4.07;;;1.70;99.90;;;;;;4954466;28;20285;-67
2021/03/02 08:06:43;;;;;;;10.97;4.43;;;1.80;99.90;;;;;;4956138;28;20189;-66
2021/03/02 08:09:29;;;;;;;3.37;2.93;;;2.00;99.90;;;;;;4961703;28;20222;-66
2021/03/02 08:12:15;;;;;;;4.90;2.93;;;1.80;99.90;;;;;;4954975;28;20348;-68
2021/03/02 08:14:41;;;;;;;8.20;4.13;;;1.80;99.90;;;;;;4961607;28;20685;-67
2021/03/02 08:17:06;;;;;;;4.77;3.37;;;1.90;99.90;;;;;;4964668;28;20283;-67
2021/03/02 08:19:42;;;;;;;6.77;3.77;;;2.00;99.90;;;;;;4957061;28;20221;-67
2021/03/02 08:22:20;;;;;;;5.20;4.03;;;2.10;99.90;;;;;;4956133;28;20220;-68
2021/03/02 08:24:50;;;;;;;5.90;3.80;;;2.10;99.90;;;;;;4953238;28;20252;-66
2021/03/02 08:27:35;;;;;;;5.60;3.33;;;2.20;99.90;;;;;;4950940;28;20672;-68
2021/03/02 08:30:07;;;;;;;6.77;3.87;;;2.20;99.90;;;;;;4955858;28;20247;-67
2021/03/02 08:32:35;;;;;;;3.87;2.53;;;2.20;99.90;;;;;;4958347;28;20253;-66
2021/03/02 08:35:10;;;;;;;3.77;2.87;;;2.30;99.90;;;;;;4956008;28;20216;-68
2021/03/02 08:37:47;;;;;;;6.03;3.70;;;2.40;99.90;;;;;;4964369;28;20270;-67
2021/03/02 08:40:19;;;;;;;6.67;3.90;;;2.60;99.90;;;;;;4958557;28;20196;-69
2021/03/02 08:43:10;;;;;;;3.53;2.30;;;2.60;99.90;;;;;;4948067;28;20273;-67
2021/03/02 08:45:50;;;;;;;5.00;3.10;;;2.60;99.90;;;;;;4960160;28;20184;-68
2021/03/02 08:48:21;;;;;;;5.20;3.17;;;2.50;99.90;;;;;;4951702;28;20542;-70
2021/03/02 08:50:50;;;;;;;5.40;3.90;;;2.70;99.90;;;;;;4963061;28;20304;-69
2021/03/02 08:53:32;;;;;;;4.50;3.03;;;2.80;99.90;;;;;;4950802;28;20219;-68
2021/03/02 08:55:59;;;;;;;6.10;4.17;;;2.80;99.90;;;;;;4961189;28;20189;-66
2021/03/02 08:58:27;;;;;;;5.67;3.70;;;2.60;99.90;;;;;;4954516;28;20581;-67
2021/03/02 09:01:08;;;;;;;5.63;3.90;;;2.70;99.90;;;;;;4957427;28;20181;-68
2021/03/02 09:03:35;;;;;;;5.90;3.50;;;2.90;99.90;;;;;;4952782;28;20229;-68
2021/03/02 09:06:22;;;;;;;7.33;5.13;;;3.00;99.90;;;;;;4960792;28;20684;-67
2021/03/02 09:08:58;;;;;;;6.80;3.97;;;3.20;99.90;;;;;;4952596;28;20570;-69
2021/03/02 09:11:30;;;;;;;11.33;9.10;;;3.30;99.90;;;;;;4947290;28;20735;-68
2021/03/02 09:13:59;;;;;;;6.83;4.40;;;3.40;99.90;;;;;;4947775;28;20216;-68
2021/03/02 09:16:31;;;;;;;6.60;4.50;;;3.40;99.90;;;;;;4962218;28;20193;-67
2021/03/02 09:19:10;;;;;;;4.97;3.13;;;3.40;99.90;;;;;;4959421;28;20595;-68
2021/03/02 09:21:41;;;;;;;4.53;2.67;;;3.50;99.90;;;;;;4948734;28;20225;-71
2021/03/02 09:24:08;;;;;;;4.97;3.70;;;3.50;99.90;;;;;;4949961;28;20209;-68
2021/03/02 09:26:34;;;;;;;5.10;2.87;;;3.70;99.90;;;;;;4949999;28;20221;-68
2021/03/02 09:29:03;;;;;;;5.63;3.27;;;3.70;99.90;;;;;;4954936;28;20194;-69
2021/03/02 09:31:30;;;;;;;3.23;2.43;;;3.70;99.90;;;;;;4950277;28;20190;-67
2021/03/02 09:33:56;;;;;;;3.30;2.13;;;3.70;99.90;;;;;;4948798;28;20558;-67
2021/03/02 09:36:30;;;;;;;2.37;1.53;;;3.70;99.90;;;;;;4962847;28;20237;-66
2021/03/02 09:38:58;;;;;;;4.13;2.63;;;3.60;99.90;;;;;;4961157;28;20208;-67
2021/03/02 09:41:31;;;;;;;5.20;2.53;;;3.70;99.90;;;;;;4958840;28;20243;-67
2021/03/02 09:44:14;;;;;;;4.27;2.43;;;3.90;99.90;;;;;;4959462;28;21156;-68
2021/03/02 09:46:39;;;;;;;4.87;3.60;;;3.80;99.90;;;;;;4954960;28;20298;-68
2021/03/02 09:49:05;;;;;;;4.27;2.70;;;3.80;99.90;;;;;;4949402;28;20201;-67
2021/03/02 09:51:32;;;;;;;3.43;2.27;;;3.70;99.90;;;;;;4955913;28;20195;-69
2021/03/02 09:54:13;;;;;;;5.03;3.43;;;3.70;99.90;;;;;;4944132;28;20740;-67
2021/03/02 09:56:42;;;;;;;3.83;2.70;;;4.00;99.90;;;;;;4946690;28;20249;-70
2021/03/02 09:59:08;;;;;;;3.53;2.23;;;4.00;99.90;;;;;;4959912;28;20204;-68
2021/03/02 10:01:34;;;;;;;4.40;2.80;;;4.00;99.90;;;;;;4960738;28;20798;-72
2021/03/02 10:04:07;;;;;;;5.13;3.00;;;4.10;99.90;;;;;;4958502;28;20651;-70
2021/03/02 10:06:33;;;;;;;4.23;2.73;;;4.30;99.90;;;;;;4946487;28;20188;-69
2021/03/02 10:09:00;;;;;;;6.30;2.60;;;4.30;99.90;;;;;;4959568;28;20196;-68
2021/03/02 10:11:27;;;;;;;6.07;3.23;;;4.00;99.90;;;;;;4960185;28;20189;-67
2021/03/02 10:13:54;;;;;;;4.40;2.57;;;3.90;99.90;;;;;;4949886;28;20220;-69
2021/03/02 10:16:48;;;;;;;4.17;3.10;;;4.10;99.90;;;;;;4953355;28;20194;-67
2021/03/02 10:19:23;;;;;;;6.83;3.00;;;4.30;99.90;;;;;;4952920;28;20295;-69
2021/03/02 10:21:54;;;;;;;5.30;3.20;;;4.50;99.90;;;;;;4946722;28;20177;-66
2021/03/02 10:24:28;;;;;;;11.00;6.73;;;4.70;99.90;;;;;;4946833;28;20208;-67
2021/03/02 10:26:58;;;;;;;7.80;4.93;;;4.70;99.90;;;;;;4950169;28;20218;-68
2021/03/02 10:29:24;;;;;;;4.10;2.47;;;4.80;99.90;;;;;;4947039;28;20598;-66
2021/03/02 10:31:52;;;;;;;5.20;3.70;;;4.80;99.90;;;;;;4948519;28;20323;-67
2021/03/02 10:34:18;;;;;;;5.27;3.63;;;4.90;99.90;;;;;;4962378;28;20219;-67
2021/03/02 10:36:51;;;;;;;4.60;2.53;;;5.20;99.90;;;;;;4963805;28;20200;-69
2021/03/02 10:39:17;;;;;;;9.90;6.10;;;5.20;99.90;;;;;;4962368;28;20274;-68
2021/03/02 10:41:44;;;;;;;5.23;3.10;;;5.20;99.90;;;;;;4952580;28;20178;-69
2021/03/02 10:44:10;;;;;;;4.43;2.70;;;5.30;99.90;;;;;;4945042;28;20296;-71
2021/03/02 10:46:36;;;;;;;11.73;6.37;;;5.50;99.90;;;;;;4943059;28;20177;-70
2021/03/02 10:49:03;;;;;;;6.70;4.00;;;5.40;99.90;;;;;;4959553;28;20258;-66
2021/03/02 10:51:30;;;;;;;7.67;4.77;;;5.60;99.90;;;;;;4953771;28;20188;-67
2021/03/02 10:53:56;;;;;;;4.67;2.87;;;5.70;99.90;;;;;;4947650;28;20270;-69
2021/03/02 10:56:22;;;;;;;19.43;11.77;;;5.80;99.90;;;;;;4944785;28;20605;-68
2021/03/02 10:58:48;;;;;;;20.47;11.67;;;5.80;99.90;;;;;;4943916;28;20213;-67
2021/03/02 11:01:15;;;;;;;6.07;3.00;;;5.80;99.90;;;;;;4951725;28;20243;-66
2021/03/02 11:03:44;;;;;;;11.93;7.70;;;5.60;99.90;;;;;;4956652;28;20203;-66
2021/03/02 11:06:21;;;;;;;9.77;6.17;;;5.60;99.90;;;;;;4947990;28;20239;-68
2021/03/02 11:08:48;;;;;;;24.57;14.03;;;5.70;99.90;;;;;;4942310;28;20193;-67
2021/03/02 11:11:19;;;;;;;6.13;4.77;;;5.90;99.90;;;;;;4949981;28;20190;-67
2021/03/02 11:13:46;;;;;;;10.80;6.10;;;6.10;99.90;;;;;;4962540;28;20220;-66
2021/03/02 11:16:12;;;;;;;4.67;3.13;;;6.40;99.90;;;;;;4957060;28;20197;-68
2021/03/02 11:18:38;;;;;;;18.57;12.40;;;6.60;99.90;;;;;;4955942;28;20221;-71
2021/03/02 11:21:04;;;;;;;6.37;4.10;;;6.60;99.90;;;;;;4965571;28;20196;-66
2021/03/02 11:23:30;;;;;;;8.43;4.80;;;6.70;99.90;;;;;;4952061;28;20736;-66
2021/03/02 11:25:56;;;;;;;5.97;3.43;;;6.70;99.90;;;;;;4960592;28;20188;-66
2021/03/02 11:28:21;;;;;;;16.10;8.63;;;7.00;99.90;;;;;;4955061;28;20190;-67
2021/03/02 11:30:47;;;;;;;9.87;5.60;;;6.60;99.90;;;;;;4961007;28;20277;-69
2021/03/02 11:33:14;;;;;;;7.37;4.73;;;6.60;99.90;;;;;;4963334;28;20208;-67
2021/03/02 11:35:40;;;;;;;6.13;4.50;;;6.70;99.90;;;;;;4964036;28;20193;-66
2021/03/02 11:38:06;;;;;;;10.77;6.70;;;6.60;99.90;;;;;;4970039;28;20210;-68
2021/03/02 11:40:33;;;;;;;6.37;4.30;;;6.60;99.90;;;;;;4961916;28;20177;-67
2021/03/02 11:42:58;;;;;;;41.07;19.90;;;6.60;99.90;;;;;;4962722;28;20202;-69
2021/03/02 11:45:26;;;;;;;8.73;4.40;;;6.80;99.90;;;;;;4961928;28;20189;-68
2021/03/02 11:47:52;;;;;;;14.80;8.17;;;6.80;99.90;;;;;;4962913;28;20188;-66
2021/03/02 11:50:19;;;;;;;11.87;6.47;;;7.00;99.90;;;;;;4961849;28;20193;-67
2021/03/02 11:52:46;;;;;;;6.33;4.37;;;7.00;99.90;;;;;;4961035;28;20582;-67
2021/03/02 11:55:13;;;;;;;11.30;6.07;;;7.00;99.90;;;;;;4961308;28;20197;-66
2021/03/02 11:57:38;;;;;;;15.83;6.67;;;7.00;99.90;;;;;;4963059;28;20217;-67
2021/03/02 12:00:13;;;;;;;8.43;4.00;;;7.00;99.90;;;;;;4961304;28;20265;-68
2021/03/02 12:02:39;;;;;;;4.47;3.10;;;7.10;99.90;;;;;;4962571;28;20282;-67
2021/03/02 12:05:06;;;;;;;16.70;7.80;;;7.30;99.90;;;;;;4962701;28;20208;-66
2021/03/02 12:07:33;;;;;;;10.33;5.13;;;7.30;99.90;;;;;;4962596;28;20599;-68
2021/03/02 12:09:58;;;;;;;15.67;8.73;;;7.40;99.90;;;;;;4962819;28;20173;-68
2021/03/02 12:12:24;;;;;;;6.97;4.20;;;7.30;99.90;;;;;;4962264;28;20635;-69
2021/03/02 12:14:50;;;;;;;15.43;7.33;;;7.30;99.90;;;;;;4961605;28;20202;-67
2021/03/02 12:17:15;;;;;;;10.90;4.97;;;7.30;99.90;;;;;;4962738;28;20173;-68
2021/03/02 12:19:41;;;;;;;6.77;4.23;;;7.20;99.90;;;;;;4962465;28;20339;-67
2021/03/02 12:22:07;;;;;;;33.40;18.57;;;7.20;99.90;;;;;;4961611;28;20217;-67
2021/03/02 12:24:32;;;;;;;8.17;4.27;;;7.00;99.90;;;;;;4960858;28;20716;-67
2021/03/02 12:26:58;;;;;;;10.93;7.93;;;7.10;99.90;;;;;;4962678;28;20185;-67
2021/03/02 12:29:25;;;;;;;6.03;4.13;;;7.00;99.90;;;;;;4968822;28;20186;-67
2021/03/02 12:31:50;;;;;;;8.90;5.13;;;7.10;99.90;;;;;;4961208;28;20193;-67
2021/03/02 12:34:16;;;;;;;8.77;5.30;;;7.30;99.90;;;;;;4963149;28;20571;-68
2021/03/02 12:36:42;;;;;;;7.10;4.33;;;7.50;99.90;;;;;;4959615;28;21102;-67
2021/03/02 12:39:08;;;;;;;7.57;4.13;;;7.60;99.90;;;;;;4953619;28;20216;-67
2021/03/02 12:41:36;;;;;;;7.43;3.83;;;7.90;99.90;;;;;;4951153;28;20779;-68
2021/03/02 12:44:01;;;;;;;4.43;3.30;;;7.70;99.90;;;;;;4959361;28;20312;-68
2021/03/02 12:46:27;;;;;;;7.53;4.67;;;7.50;99.90;;;;;;4962808;28;20221;-66
2021/03/02 12:48:53;;;;;;;5.63;3.33;;;7.50;99.90;;;;;;4953933;28;20185;-66
2021/03/02 12:51:19;;;;;;;6.83;3.53;;;7.50;99.90;;;;;;4958329;28;20184;-68
2021/03/02 12:53:46;;;;;;;8.57;4.17;;;7.50;99.90;;;;;;4957772;28;20216;-68
2021/03/02 12:56:12;;;;;;;9.50;4.70;;;7.40;99.90;;;;;;4957017;28;20193;-68
2021/03/02 12:58:37;;;;;;;6.67;3.93;;;7.50;99.90;;;;;;4958289;28;20287;-68
2021/03/02 13:01:03;;;;;;;6.33;3.20;;;7.60;99.90;;;;;;4965578;28;20200;-68
2021/03/02 13:03:29;;;;;;;7.00;5.03;;;7.70;99.90;;;;;;4963864;28;20213;-70